Tiempo atmosférico en la estación meteorológica de Tejeda, Cruz de Tejeda, Las Palmas (1514 m.)



Fecha
DESCASC
Temp. máxima en grados centígrados (hora)
DESCASC
Temp. mínima en grados centígrados (hora)
DESCASC
Temp. media en grados centígrados
DESCASC
Racha de viento máxima en m/sg (hora)
DESCASC
Velocidad máxima media en intervalos de 10 minutos(hora)
DESCASC
Precipitaciones diarias en mm
DESCASC
Precipitaciones de 00:00 a 06:00 en mm
DESCASC
Precipitaciones de 06:00 a 12:00 en mm
DESCASC
Precipitaciones de 12:00 a 18:00 en mm
DESCASC
Precipitaciones de 18:00 a 24:00 en mm
DESCASC
31-03-2020 14.9 (13:00) 8.6 (21:40) 11.8 9.44 (17:30) 5 (14:40) -- -- -- -- --
30-03-2020 14.5 (14:30) 8.1 (03:50) 11.3 9.44 (15:30) 5.83 (21:10) -- -- -- -- --
29-03-2020 13.3 (13:20) 3.7 (00:00) 8.5 6.94 (16:10) 2.78 (16:40) -- -- -- -- --
28-03-2020 10 (11:20) 3.9 (00:00) 7 6.67 (01:30) 3.33 (05:50) -- -- -- -- --
27-03-2020 11.9 (14:20) 4 (00:00) 7.9 7.5 (12:00) 3.33 (21:50) -- -- -- -- --
26-03-2020 9.1 (13:20) 3.7 (00:00) 6.4 5.56 (20:40) 2.5 (00:30) -- -- -- -- --
25-03-2020 10 (12:50) 3.8 (00:00) 6.9 6.67 (03:00) 2.5 (22:00) -- -- -- -- --
24-03-2020 8.7 (15:20) 4.7 (00:00) 6.7 10.56 (00:20) 3.06 (00:20) -- -- -- -- --
23-03-2020 5.4 (14:20) 2.6 (00:00) 4 20.83 (02:50) 8.61 (02:50) -- -- -- -- --
22-03-2020 11.7 (14:40) 2.8 (00:50) 7.2 22.78 (23:50) 5 (19:50) -- -- -- -- --
21-03-2020 8 (17:20) 3.1 (00:00) 5.5 14.44 (03:40) 7.22 (07:10) -- -- -- -- --
20-03-2020 9.6 (14:30) 5.3 (00:00) 7.5 13.61 (22:20) 7.78 (23:59) -- -- -- -- --
19-03-2020 8.4 (14:10) 4.4 (00:00) 6.4 12.5 (14:20) 5.56 (14:10) -- -- -- -- --
18-03-2020 7.3 (16:00) 3.4 (00:00) 5.4 12.5 (21:20) 4.17 (00:20) -- -- -- -- --
17-03-2020 6.1 (15:50) 3.2 (00:00) 4.6 17.78 (00:40) 10.83 (06:50) -- -- -- -- --
16-03-2020 6.6 (17:30) 4.6 (00:00) 5.6 20 (06:20) 10 (22:50) -- -- -- -- --
15-03-2020 7 (15:50) 4.5 (00:00) 5.8 17.22 (23:59) 8.06 (19:30) -- -- -- -- --
14-03-2020 13.6 (15:40) 4.6 (00:00) 9.1 8.06 (23:10) 3.61 (23:30) -- -- -- -- --
13-03-2020 17.1 (15:30) 10.5 (23:59) 13.8 5.83 (12:00) 2.78 (07:40) -- -- -- -- --
12-03-2020 21.5 (14:10) 12.6 (00:00) 17.1 7.78 (11:10) 4.72 (06:10) -- -- -- -- --
11-03-2020 21.3 (12:20) 13.5 (00:00) 17.4 6.39 (13:40) 3.06 (12:40) -- -- -- -- --
10-03-2020 20.7 (14:10) 11.3 (00:00) 16 10.83 (00:10) 7.78 (00:30) -- -- -- -- --
09-03-2020 16.3 (14:30) 10.6 (00:00) 13.4 16.39 (03:50) 10.56 (03:40) -- -- -- -- --
08-03-2020 17.3 (15:10) 12.9 (00:00) 15.1 13.61 (11:20) 8.89 (04:30) -- -- -- -- --
07-03-2020 17.2 (17:30) 3.6 (00:00) 10.4 15.56 (00:40) 11.39 (00:20) -- -- -- -- --
06-03-2020 9.4 (23:10) 3.7 (00:00) 6.5 16.94 (07:50) 10.83 (23:00) -- -- -- -- --
05-03-2020 18.1 (03:00) 6.4 (00:00) 12.3 11.67 (23:20) 8.06 (23:20) -- -- -- -- --
04-03-2020 23.4 (17:20) 15.9 (00:00) 19.6 8.89 (03:50) 5.28 (00:50) -- -- -- -- --

Gráficas

Temp. máximas Temp. mínimas Temp. medias Precipitaciones Rachas de viento máximas Velocidades máximas media en intervalos de 10 minutos

Datos horarios

Fecha y hora oficial Temperatura (ºC) Velocidad del viento (km/h) Dirección del viento Racha (km/h) Dirección de racha Precipitación (mm) Presión (hPa) Tendencia (hPa) Humedad (%)
2020-04-02 23:00:00 10.8 3 Nordeste 12 Norte -- -- -- 38
2020-04-02 22:00:00 11.2 6 Nordeste 13 Norte -- -- -- 47
2020-04-02 21:00:00 10.3 2 Norte 13 Nordeste -- -- -- 80
2020-04-02 20:00:00 11.9 3 Nordeste 7 Nordeste -- -- -- 90
2020-04-02 19:00:00 12.2 3 Sudoeste 9 Este -- -- -- 94
2020-04-02 18:00:00 11 4 Este 10 Este -- -- -- 95
2020-04-02 17:00:00 14.4 3 Este 17 Sudoeste -- -- -- 82
2020-04-02 16:00:00 15 8 Sudoeste 17 Sudoeste -- -- -- 74
2020-04-02 15:00:00 14.1 5 Este 15 Oeste -- -- -- 82
2020-04-02 14:00:00 13.8 5 Este 14 Este -- -- -- 81
2020-04-02 13:00:00 15.1 4 Este 12 Este -- -- -- 73
2020-04-02 12:00:00 14.1 4 Este 10 Nordeste -- -- -- 73
2020-04-02 11:00:00 12.7 4 Sudoeste 14 Nordeste -- -- -- 38
2020-04-02 10:00:00 10.9 2 Nordeste 9 Nordeste -- -- -- 49
2020-04-02 09:00:00 10.9 0 Calma 8 Norte -- -- -- 38
2020-04-02 08:00:00 9.6 4 Norte 9 Norte -- -- -- 40
2020-04-02 07:00:00 9.7 3 Noroeste 14 Norte -- -- -- 39
2020-04-02 06:00:00 9.7 3 Norte 10 Norte -- -- -- 39
2020-04-02 05:00:00 10 2 Noroeste 7 Norte -- -- -- 37
2020-04-02 04:00:00 10.2 2 Noroeste 9 Norte -- -- -- 36
2020-04-02 03:00:00 9.1 2 Nordeste 6 Nordeste -- -- -- 38
2020-04-02 02:00:00 10.1 0 Calma 14 Norte -- -- -- 36
2020-04-02 01:00:00 10 3 Norte 17 Norte -- -- -- 35
2020-04-02 00:00:00 9.9 3 Nordeste 18 Nordeste -- -- -- 39
2020-04-01 23:00:00 9.9 12 Norte 21 Norte -- -- -- 40
2020-04-01 22:00:00 10.3 14 Norte 23 Norte -- -- -- 39
2020-04-01 21:00:00 10.7 11 Norte 17 Noroeste -- -- -- 39
2020-04-01 20:00:00 12.9 3 Norte 12 Norte -- -- -- 62
2020-04-01 19:00:00 14 6 Sudoeste 16 Sudoeste -- -- -- 76
2020-04-01 18:00:00 13.6 11 Sudoeste 23 Oeste -- -- -- 77
2020-04-01 17:00:00 14.6 9 Sudoeste 23 Sudoeste -- -- -- 73
2020-04-01 16:00:00 14.4 11 Sudoeste 23 Sudoeste -- -- -- 73
2020-04-01 15:00:00 14.9 5 Sudeste 21 Sudoeste -- -- -- 76
2020-04-01 14:00:00 15.5 4 Este 16 Oeste -- -- -- 66
2020-04-01 13:00:00 14.4 6 Sudoeste 12 Sudoeste -- -- -- 54
2020-04-01 12:00:00 14.3 5 Sudoeste 12 Sudoeste -- -- -- 45
2020-04-01 11:00:00 12.7 4 Sudoeste 8 Sudoeste -- -- -- 47
2020-04-01 10:00:00 11.6 4 Sudoeste 8 Sudoeste -- -- -- 37
2020-04-01 09:00:00 11.5 4 Oeste 10 Sudoeste -- -- -- 37
2020-04-01 08:00:00 10.7 5 Oeste 12 Sudoeste -- -- -- 38
2020-04-01 07:00:00 10.8 3 Oeste 9 Oeste -- -- -- 38
2020-04-01 06:00:00 11 5 Oeste 9 Oeste -- -- -- 37
2020-04-01 05:00:00 10.6 4 Oeste 7 Oeste -- -- -- 41
2020-04-01 04:00:00 10.7 3 Oeste 6 Sudoeste -- -- -- 41
2020-04-01 03:00:00 10 3 Sudoeste 10 Sudoeste -- -- -- 42
2020-04-01 02:00:00 10.2 3 Oeste 11 Sudoeste -- -- -- 46
2020-04-01 01:00:00 9.9 5 Oeste 7 Oeste -- -- -- 50
2020-04-01 00:00:00 9.5 0 Calma 9 Norte -- -- -- 55
2020-03-31 23:00:00 9.7 0 Calma 8 Sudoeste -- -- -- 61
2020-03-31 22:00:00 9.7 5 Sudoeste 16 Sudoeste -- -- -- 85
2020-03-31 21:00:00 9.4 11 Sudoeste 22 Sudoeste -- -- -- 97
2020-03-31 20:00:00 10.5 6 Sudoeste 20 Oeste -- -- -- 93
2020-03-31 19:00:00 12.6 9 Sudoeste 29 Sudoeste -- -- -- 82
2020-03-31 18:00:00 14.2 11 Sudoeste 34 Sudoeste -- -- -- 69
2020-03-31 17:00:00 14 16 Sudoeste 32 Sudoeste -- -- -- 65
2020-03-31 16:00:00 13.7 17 Sudoeste 31 Oeste -- -- -- 75
2020-03-31 15:00:00 13.7 16 Sudoeste 30 Sudoeste -- -- -- 74
2020-03-31 14:00:00 14.5 6 Sur 22 Sudoeste -- -- -- 74
2020-03-31 13:00:00 14.9 5 Sur 20 Sudoeste -- -- -- 63
2020-03-31 12:00:00 13.8 8 Sudoeste 20 Sudoeste -- -- -- 44
2020-03-31 11:00:00 12.4 10 Sudoeste 20 Sudoeste -- -- -- 52
2020-03-31 10:00:00 10.9 8 Sudoeste 17 Oeste -- -- -- 55
2020-03-31 09:00:00 10.2 6 Sudoeste 20 Sudoeste -- -- -- 56
2020-03-31 08:00:00 9.5 8 Oeste 27 Sudoeste -- -- -- 59
2020-03-31 07:00:00 9.4 8 Sudoeste 19 Oeste -- -- -- 60
2020-03-31 06:00:00 9.5 9 Sudoeste 19 Sudoeste -- -- -- 60
2020-03-31 05:00:00 9.4 6 Oeste 17 Sudoeste -- -- -- 62
2020-03-31 04:00:00 9.8 8 Sudoeste 14 Sudoeste -- -- -- 60
2020-03-31 03:00:00 9.6 6 Sudoeste 20 Sudoeste -- -- -- 63
2020-03-31 02:00:00 10.1 13 Sudoeste 24 Sudoeste -- -- -- 63
2020-03-31 01:00:00 10.7 16 Sudoeste 24 Sudoeste -- -- -- 59
2020-03-31 00:00:00 10.2 11 Sudoeste 22 Sudoeste -- -- -- 64
2020-03-30 23:00:00 9.6 13 Sudoeste 28 Sudoeste -- -- -- 65
2020-03-30 22:00:00 10 17 Sudoeste 29 Sudoeste -- -- -- 65
2020-03-30 21:00:00 9.6 18 Sudoeste 29 Sudoeste -- -- -- 73
2020-03-30 20:00:00 11.1 17 Sudoeste 31 Sudoeste -- -- -- 68
2020-03-30 19:00:00 12.6 13 Sudoeste 31 Sudoeste -- -- -- 61
2020-03-30 18:00:00 13.1 15 Sudoeste 32 Sudoeste -- -- -- 56
2020-03-30 17:00:00 13.9 15 Sudoeste 33 Sudoeste -- -- -- 55
2020-03-30 16:00:00 13.9 15 Sudoeste 34 Sudoeste -- -- -- 68
2020-03-30 15:00:00 14.2 16 Sudoeste 31 Oeste -- -- -- 57
2020-03-30 14:00:00 14.1 15 Sudoeste 30 Sudoeste -- -- -- 62
2020-03-30 13:00:00 13.3 13 Sudoeste 24 Sudoeste -- -- -- 58
2020-03-30 12:00:00 12.7 13 Sudoeste 26 Sudoeste -- -- -- 54
2020-03-30 11:00:00 12.1 10 Sudoeste 22 Sudoeste -- -- -- 53
2020-03-30 10:00:00 10.7 13 Sudoeste 21 Sudoeste -- -- -- 56
2020-03-30 09:00:00 10.2 6 Sudoeste 11 Sudoeste -- -- -- 61
2020-03-30 08:00:00 9.1 3 Oeste 12 Sudoeste -- -- -- 62
2020-03-30 07:00:00 9 5 Sudoeste 11 Sudoeste -- -- -- 64
2020-03-30 06:00:00 9.7 4 Oeste 7 Oeste -- -- -- 60
2020-03-30 05:00:00 9.5 3 Oeste 7 Sudoeste -- -- -- 62
2020-03-30 04:00:00 8.1 2 Oeste 5 Oeste -- -- -- 70
2020-03-30 03:00:00 8.6 4 Oeste 8 Noroeste -- -- -- 67
2020-03-30 02:00:00 9.7 5 Noroeste 13 Norte -- -- -- 64
2020-03-30 01:00:00 9.5 6 Noroeste 11 Noroeste -- -- -- 65
2020-03-30 00:00:00 10.5 8 Nordeste 15 Nordeste -- -- -- 54
2020-03-29 23:00:00 9.9 7 Nordeste 17 Nordeste -- -- -- 43
2020-03-29 22:00:00 9.5 4 Norte 12 Nordeste -- -- -- 45
2020-03-29 21:00:00 9.5 2 Norte 9 Noroeste -- -- -- 47
2020-03-29 20:00:00 8.7 6 Sudoeste 14 Sudoeste -- -- -- 93
2020-03-29 19:00:00 11.6 7 Sudoeste 16 Oeste -- -- -- 77
2020-03-29 18:00:00 12.7 5 Sudoeste -- -- -- -- -- 72
2020-03-29 17:00:00 12.1 10 Sudoeste 25 Oeste -- -- -- 76
2020-03-29 16:00:00 12.3 9 Sudoeste 20 Sudoeste -- -- -- 74
2020-03-29 15:00:00 12.3 10 Sudoeste 23 Sudoeste -- -- -- 73
2020-03-29 14:00:00 12 8 Sudoeste 17 Sudoeste -- -- -- 68
2020-03-29 13:00:00 11.4 5 Sudoeste 14 Sudoeste -- -- -- 64
2020-03-29 12:00:00 9.9 5 Sudoeste 9 Sudoeste -- -- -- 66
2020-03-29 11:00:00 9.1 3 Sudoeste 10 Este -- -- -- 70
2020-03-29 10:00:00 7.5 2 Este 8 Sudoeste -- -- -- 75
2020-03-29 09:00:00 6.8 0 Calma 4 Oeste -- -- -- 80
2020-03-29 08:00:00 4.5 2 Oeste 5 Oeste -- -- -- 79
2020-03-29 07:00:00 4.1 3 Sudoeste 5 Oeste -- -- -- 89
2020-03-29 06:00:00 4.1 2 Sudoeste 5 Oeste -- -- -- 89
2020-03-29 05:00:00 4.2 0 Calma 10 Nordeste -- -- -- 87
2020-03-29 04:00:00 4.1 0 Calma 8 Norte -- -- -- 90
2020-03-29 00:00:00 5.1 8 Noroeste 14 Norte -- -- -- 88
2020-03-28 23:00:00 5.2 3 Noroeste 10 Oeste -- -- -- 92
2020-03-28 22:00:00 5.8 3 Noroeste 9 Oeste -- -- -- 93
2020-03-28 21:00:00 5.5 4 Oeste 9 Oeste -- -- -- 94
2020-03-28 20:00:00 6.4 2 Norte 8 Oeste -- -- -- 100
2020-03-28 19:00:00 7.1 2 Nordeste 4 Este -- -- -- 100
2020-03-28 18:00:00 6.9 0 Calma 6 Este -- -- -- 99
2020-03-28 17:00:00 7.2 0 Calma 6 Este -- -- -- 98
2020-03-28 16:00:00 8.3 2 Este 7 Este -- -- -- 97
2020-03-28 15:00:00 8 2 Nordeste 11 Nordeste -- -- -- 95
2020-03-28 14:00:00 7.7 4 Nordeste 12 Este -- -- -- 97
2020-03-28 13:00:00 8.2 3 Nordeste 16 Nordeste -- -- -- 94
2020-03-28 12:00:00 8.7 4 Nordeste 13 Este -- -- -- 90
2020-03-28 11:00:00 9.2 5 Este 15 Nordeste -- -- -- 90
2020-03-28 10:00:00 7.6 7 Norte 22 Norte -- -- -- 87
2020-03-28 09:00:00 6.3 6 Nordeste 18 Nordeste -- -- -- 89
2020-03-28 08:00:00 5.9 6 Noroeste 16 Noroeste -- -- -- 80
2020-03-28 07:00:00 5 6 Oeste 24 Noroeste -- -- -- 81
2020-03-28 06:00:00 4.9 7 Noroeste 21 Noroeste -- -- -- 84
2020-03-28 05:00:00 4 3 Nordeste 14 Noroeste -- -- -- 98
2020-03-28 04:00:00 4.8 5 Sudoeste 24 Sudoeste -- -- -- 100
2020-03-28 03:00:00 4.9 6 Sudoeste 22 Sudoeste -- -- -- 100
2020-03-28 02:00:00 5.1 4 Sudoeste 24 Sudoeste -- -- -- 100
2020-03-28 01:00:00 5.9 6 Sudoeste 19 Sur -- -- -- 100
2020-03-28 00:00:00 6.3 4 Sudoeste 16 Oeste -- -- -- 100
2020-03-27 23:00:00 6.1 2 Oeste 10 Sudoeste -- -- -- 100
2020-03-27 22:00:00 6.5 4 Sudoeste 19 Oeste -- -- -- 100
2020-03-27 21:00:00 6.7 10 Sudoeste 23 Sudoeste -- -- -- 100
2020-03-27 20:00:00 6.8 3 Sudoeste 20 Sudoeste -- -- -- 99
2020-03-27 19:00:00 7.8 3 Sudoeste 18 Oeste -- -- -- 95
2020-03-27 18:00:00 9.2 5 Sur 20 Sudoeste -- -- -- 88
2020-03-27 17:00:00 9.5 3 Este 8 Norte -- -- -- 91
2020-03-27 16:00:00 9.5 3 Este 17 Sudoeste -- -- -- 91
2020-03-27 15:00:00 10.5 5 Sudoeste 21 Sudoeste -- -- -- 67
2020-03-27 14:00:00 11 7 Sudoeste 20 Sudoeste -- -- -- 63
2020-03-27 13:00:00 8.8 6 Oeste 25 Sudoeste -- -- -- 87
2020-03-27 12:00:00 7.7 11 Sudoeste 27 Sudoeste -- -- -- 98
2020-03-27 11:00:00 6.8 7 Sudoeste 18 Sudoeste -- -- -- 99
2020-03-27 10:00:00 6.4 6 Sudoeste 17 Sudoeste -- -- -- 100
2020-03-27 09:00:00 5.7 3 Sudoeste 14 Sudeste -- -- -- 99
2020-03-27 08:00:00 5.4 5 Oeste 11 Sudoeste -- -- -- 97
2020-03-27 07:00:00 5.1 3 Norte 12 Norte -- -- -- 92
2020-03-27 06:00:00 4.3 4 Sudoeste 13 Oeste -- -- -- 99
2020-03-27 05:00:00 4.9 3 Sudoeste 11 Sudeste -- -- -- 99
2020-03-27 04:00:00 4.7 0 Calma 4 Sudoeste -- -- -- 97
2020-03-27 03:00:00 4.7 4 Sudoeste 9 Sudoeste -- -- -- 92
2020-03-27 02:00:00 4.3 0 Calma 10 Sudoeste -- -- -- 94
2020-03-27 01:00:00 4.2 3 Sudoeste 13 Oeste -- -- -- 96
2020-03-27 00:00:00 4.6 5 Sudoeste 12 Sudoeste -- -- -- 92
2020-03-26 23:00:00 4.9 2 Oeste 20 Sudoeste -- -- -- 94
2020-03-26 22:00:00 5.1 5 Sudoeste 17 Sudoeste -- -- -- 94
2020-03-26 21:00:00 4.9 5 Sudoeste 20 Noroeste -- -- -- 94
2020-03-26 20:00:00 5.6 4 Oeste 14 Noroeste -- -- -- 90
2020-03-26 19:00:00 6.6 5 Sudoeste 14 Noroeste -- -- -- 84
2020-03-26 18:00:00 7.5 4 Sudoeste 19 Sudoeste -- -- -- 82
2020-03-26 17:00:00 6.5 7 Oeste 17 Oeste -- -- -- 97
2020-03-26 16:00:00 8.1 5 Sudoeste 18 Sudoeste -- -- -- 88
2020-03-26 15:00:00 7.2 3 Sudoeste 15 Oeste -- -- -- 97
2020-03-26 14:00:00 7.5 3 Este 13 Sur -- -- -- 94
2020-03-26 13:00:00 8.6 5 Sudoeste 17 Sudoeste -- -- -- 76
2020-03-26 12:00:00 8.2 4 Sudoeste 13 Sudoeste -- -- -- 74
2020-03-26 11:00:00 7.5 5 Sudoeste 12 Sudoeste -- -- -- 76
2020-03-26 10:00:00 7.3 3 Este 16 Sudeste -- -- -- 77
2020-03-26 09:00:00 6.4 6 Este 17 Este -- -- -- 80
2020-03-26 08:00:00 5.5 5 Este 15 Este -- -- -- 83
2020-03-26 07:00:00 4.4 3 Noroeste 9 Noroeste -- -- -- 84
2020-03-26 06:00:00 4.8 3 Noroeste 11 Norte -- -- -- 84
2020-03-26 05:00:00 4.6 4 Noroeste 13 Noroeste -- -- -- 93
2020-03-26 04:00:00 3.8 0 Calma 5 Oeste -- -- -- 99
2020-03-26 03:00:00 4.6 0 Calma 12 Nordeste -- -- -- 100
2020-03-26 02:00:00 4.5 2 Nordeste 10 Nordeste -- -- -- 99
2020-03-26 01:00:00 4.7 5 Nordeste 16 Este -- -- -- 98
2020-03-26 00:00:00 4.6 5 Nordeste 19 Nordeste -- -- -- 97
2020-03-25 23:00:00 3.8 6 Nordeste 19 Norte -- -- -- 82
2020-03-25 22:00:00 4.4 9 Norte 21 Norte -- -- -- 94
2020-03-25 21:00:00 5.2 7 Norte 21 Norte -- -- -- 86
2020-03-25 20:00:00 5.6 5 Sudoeste 13 Sur -- -- -- 83
2020-03-25 19:00:00 7.1 3 Oeste 15 Oeste -- -- -- 84
2020-03-25 18:00:00 7.1 8 Sudoeste 17 Sudoeste -- -- -- 91
2020-03-25 17:00:00 8.2 4 Sudoeste 13 Sudoeste -- -- -- 84
2020-03-25 16:00:00 7.4 2 Este 9 Oeste -- -- -- 93
2020-03-25 15:00:00 8.1 2 Este 15 Oeste -- -- -- 91
2020-03-25 14:00:00 9 3 Este 12 Sudeste -- -- -- 84
2020-03-25 13:00:00 9.8 3 Este 13 Sudoeste -- -- -- 84
2020-03-25 12:00:00 8.5 6 Sudoeste 15 Sudoeste -- -- -- 74
2020-03-25 11:00:00 7.5 5 Sudoeste 10 Sur -- -- -- 76
2020-03-25 10:00:00 6.7 4 Norte 14 Norte -- -- -- 79
2020-03-25 09:00:00 5.4 3 Este 13 Este -- -- -- 94
2020-03-25 08:00:00 4.6 3 Nordeste 14 Nordeste -- -- -- 99
2020-03-25 07:00:00 4.2 3 Nordeste 21 Este -- -- -- 100
2020-03-25 06:00:00 4.2 5 Este 22 Este -- -- -- 100
2020-03-25 05:00:00 4.4 5 Nordeste 20 Este -- -- -- 100
2020-03-25 04:00:00 4.4 2 Nordeste 12 Este -- -- -- 100
2020-03-25 03:00:00 4.6 5 Nordeste 24 Este -- -- -- 100
2020-03-25 02:00:00 5 4 Nordeste 21 Nordeste -- -- -- 100
2020-03-25 01:00:00 5.3 4 Nordeste 22 Este -- -- -- 99
2020-03-25 00:00:00 5.1 3 Este 18 Nordeste -- -- -- 98
2020-03-24 23:00:00 4.9 3 Nordeste 19 Oeste -- -- -- 97
2020-03-24 22:00:00 5 3 Sudoeste 22 Sudoeste -- -- -- 94
2020-03-24 21:00:00 5.6 5 Sudoeste 19 Sudeste -- -- -- 98
2020-03-24 20:00:00 5.6 6 Sudeste 18 Este -- -- -- 98
2020-03-24 19:00:00 -- -- -- -- -- -- -- -- --
2020-03-24 18:00:00 6.4 4 Sudoeste 19 Oeste -- -- -- 98
2020-03-24 17:00:00 7 7 Sudoeste 24 Sudoeste -- -- -- 94
2020-03-24 16:00:00 8.1 2 Sudeste 17 Oeste -- -- -- 91
2020-03-24 15:00:00 8.4 8 Noroeste 28 Sudoeste -- -- -- 87
2020-03-24 14:00:00 8.6 7 Oeste 25 Oeste -- -- -- 91
2020-03-24 13:00:00 7.3 10 Sudoeste 26 Sudoeste -- -- -- 99
2020-03-24 12:00:00 5.7 6 Noroeste 26 Norte -- -- -- 100
2020-03-24 11:00:00 5.7 6 Noroeste -- -- -- -- -- 100
2020-03-24 10:00:00 -- -- -- -- -- -- -- -- --
2020-03-24 09:00:00 5 7 Noroeste -- -- -- -- -- 100
2020-03-24 08:00:00 -- -- -- -- -- -- -- -- --
2020-03-24 07:00:00 4.8 8 Sudoeste -- -- -- -- -- 100
2020-03-24 06:00:00 -- -- -- -- -- -- -- -- --
2020-03-24 05:00:00 -- -- -- -- -- -- -- -- --
2020-03-24 04:00:00 -- -- -- -- -- -- -- -- --
2020-03-24 03:00:00 -- -- -- -- -- -- -- -- --
2020-03-24 02:00:00 5.1 5 Este 34 Norte -- -- -- 100
2020-03-24 01:00:00 4.7 6 Nordeste -- -- -- -- -- 100
2020-03-24 00:00:00 -- -- -- -- -- -- -- -- --
2020-03-23 23:00:00 5 8 Norte -- -- -- -- -- 100
2020-03-23 22:00:00 -- -- -- -- -- -- -- -- --
2020-03-23 21:00:00 5 7 Nordeste 35 Nordeste -- -- -- 100
2020-03-23 20:00:00 4.7 9 Nordeste -- -- -- -- -- 100
2020-03-23 19:00:00 4.3 8 Nordeste -- -- -- -- -- 100
2020-03-23 18:00:00 -- -- -- -- -- -- -- -- --
2020-03-23 17:00:00 4.5 11 Nordeste 39 Este -- -- -- 100
2020-03-23 16:00:00 4.4 12 Este -- -- -- -- -- 100
2020-03-23 15:00:00 -- -- -- -- -- -- -- -- --
2020-03-23 14:00:00 -- -- -- -- -- -- -- -- --
2020-03-23 13:00:00 4.9 10 Nordeste -- -- -- -- -- 100
2020-03-23 12:00:00 -- -- -- -- -- -- -- -- --
2020-03-23 11:00:00 -- -- -- -- -- -- -- -- --
2020-03-23 10:00:00 -- -- -- -- -- -- -- -- --
2020-03-23 09:00:00 2.7 8 Sudoeste -- -- -- -- -- 100
2020-03-23 08:00:00 -- -- -- -- -- -- -- -- --
2020-03-23 07:00:00 -- -- -- -- -- -- -- -- --
2020-03-23 06:00:00 -- -- -- -- -- -- -- -- --
2020-03-23 05:00:00 -- -- -- -- -- -- -- -- --
2020-03-23 04:00:00 -- -- -- -- -- -- -- -- --
2020-03-23 03:00:00 3.6 27 Sudoeste -- -- -- -- -- 94
2020-03-23 02:00:00 3.6 17 Sudoeste 50 Sudoeste -- -- -- 99
2020-03-23 01:00:00 4.2 14 Oeste 59 Sudoeste -- -- -- 98
2020-03-23 00:00:00 4.2 16 Oeste 82 Sudoeste -- -- -- 96
2020-03-22 23:00:00 4.3 17 Oeste 42 Sudoeste -- -- -- 97
2020-03-22 22:00:00 4.5 14 Oeste 47 Sudoeste -- -- -- 99
2020-03-22 21:00:00 4.3 14 Sudoeste 43 Sudoeste -- -- -- 99
2020-03-22 20:00:00 4.8 14 Sudoeste -- -- -- -- -- 99
2020-03-22 19:00:00 -- -- -- -- -- -- -- -- --
2020-03-22 18:00:00 8.1 3 Sudeste 21 Sudoeste -- -- -- 80
2020-03-22 17:00:00 9.5 9 Sudoeste 30 Sudoeste -- -- -- 68
2020-03-22 16:00:00 10.5 11 Sudoeste 29 Sudoeste -- -- -- 54
2020-03-22 15:00:00 11.7 4 Este 25 Sudoeste -- -- -- 77
2020-03-22 14:00:00 10.5 7 Sudoeste 21 Sudoeste -- -- -- 64
2020-03-22 13:00:00 8.2 8 Sudoeste 23 Sudoeste -- -- -- 99
2020-03-22 12:00:00 5.7 8 Sudoeste 24 Sudoeste -- -- -- 99
2020-03-22 11:00:00 5.1 8 Sudoeste 22 Sudoeste -- -- -- 100
2020-03-22 10:00:00 -- -- -- -- -- -- -- -- --
2020-03-22 09:00:00 4.2 10 Oeste 23 Sudoeste -- -- -- 100
2020-03-22 08:00:00 3.8 8 Oeste 24 Sur -- -- -- 100
2020-03-22 07:00:00 -- -- -- -- -- -- -- -- --
2020-03-22 06:00:00 3.8 3 Sudoeste 16 Este -- -- -- 100
2020-03-22 05:00:00 4.2 5 Sudoeste -- -- -- -- -- 100
2020-03-22 04:00:00 4 4 Sur 17 Sudoeste -- -- -- 100
2020-03-22 03:00:00 -- -- -- -- -- -- -- -- --
2020-03-22 02:00:00 3.5 4 Oeste 28 Oeste -- -- -- 100
2020-03-22 01:00:00 2.8 4 Sur 22 Sudoeste -- -- -- 100
2020-03-22 00:00:00 4 7 Noroeste 23 Noroeste -- -- -- 100
2020-03-21 23:00:00 -- -- -- -- -- -- -- -- --
2020-03-21 22:00:00 -- -- -- -- -- -- -- -- --
2020-03-21 21:00:00 -- -- -- -- -- -- -- -- --
2020-03-21 20:00:00 4.5 5 Noroeste 25 Noroeste -- -- -- 99
2020-03-21 19:00:00 4.6 9 Norte 30 Norte -- -- -- 95
2020-03-21 18:00:00 5.8 7 Nordeste 22 Norte -- -- -- 85
2020-03-21 17:00:00 7.3 5 Nordeste 20 Norte -- -- -- 99
2020-03-21 16:00:00 6.8 8 Nordeste 21 Norte -- -- -- 99
2020-03-21 15:00:00 6.6 4 Nordeste 19 Nordeste -- -- -- 100
2020-03-21 14:00:00 6.1 4 Nordeste 22 Nordeste -- -- -- 100
2020-03-21 13:00:00 5.3 6 Nordeste 32 Este -- -- -- 100
2020-03-21 12:00:00 4.7 8 Nordeste 38 Nordeste -- -- -- 100
2020-03-21 11:00:00 4.8 6 Nordeste -- -- -- -- -- 100
2020-03-21 10:00:00 4.1 13 Este -- -- -- -- -- 100
2020-03-21 09:00:00 3.2 12 Nordeste -- -- -- -- -- 100
2020-03-21 08:00:00 3.4 9 Nordeste -- -- -- -- -- 100
2020-03-21 07:00:00 -- -- -- -- -- -- -- -- --
2020-03-21 06:00:00 3.3 8 Nordeste 46 Nordeste -- -- -- 100
2020-03-21 05:00:00 -- -- -- -- -- -- -- -- --
2020-03-21 04:00:00 -- -- -- -- -- -- -- -- --
2020-03-21 03:00:00 3.7 12 Nordeste -- -- -- -- -- 100
2020-03-21 02:00:00 4.2 17 Este 48 Este -- -- -- 100
2020-03-21 01:00:00 -- -- -- -- -- -- -- -- --
2020-03-21 00:00:00 5.3 28 Este -- -- -- -- -- 100
2020-03-20 23:00:00 -- -- -- -- -- -- -- -- --
2020-03-20 22:00:00 -- -- -- -- -- -- -- -- --
2020-03-20 21:00:00 6.4 21 Este -- -- -- -- -- 100
2020-03-20 20:00:00 6.3 19 Este -- -- -- -- -- 100
2020-03-20 19:00:00 6.4 12 Este -- -- -- -- -- 99
2020-03-20 18:00:00 7.4 3 Nordeste 22 Este -- -- -- 93
2020-03-20 17:00:00 7.8 9 Este 24 Este -- -- -- 85
2020-03-20 16:00:00 8.9 9 Este 30 Norte -- -- -- 80
2020-03-20 15:00:00 8.9 7 Nordeste 32 Nordeste -- -- -- 72
2020-03-20 14:00:00 8 7 Nordeste 40 Este -- -- -- 97
2020-03-20 13:00:00 7.4 10 Este 30 Este -- -- -- 100
2020-03-20 12:00:00 6.2 6 Nordeste 28 Norte -- -- -- 100
2020-03-20 11:00:00 5.9 9 Nordeste 33 Este -- -- -- 100
2020-03-20 10:00:00 6.3 5 Nordeste 22 Este -- -- -- 100
2020-03-20 09:00:00 5.4 10 Nordeste 30 Norte -- -- -- 100
2020-03-20 08:00:00 -- -- -- -- -- -- -- -- --
2020-03-20 07:00:00 5.5 5 Este 33 Nordeste -- -- -- 100
2020-03-20 06:00:00 6.3 9 Nordeste -- -- -- -- -- 100
2020-03-20 05:00:00 6.3 5 Nordeste 36 Este -- -- -- 100
2020-03-20 04:00:00 6.5 8 Nordeste 25 Nordeste -- -- -- 100
2020-03-20 03:00:00 -- -- -- -- -- -- -- -- --
2020-03-20 02:00:00 6.6 7 Nordeste -- -- -- -- -- 100
2020-03-20 01:00:00 6.4 8 Nordeste 30 Nordeste -- -- -- 100
2020-03-20 00:00:00 6.4 9 Nordeste -- -- -- -- -- 100
2020-03-19 23:00:00 6.6 12 Nordeste -- -- -- -- -- 100
2020-03-19 22:00:00 6.7 9 Nordeste -- -- -- -- -- 100
2020-03-19 21:00:00 6.6 10 Nordeste -- -- -- -- -- 100
2020-03-19 20:00:00 6.5 10 Nordeste -- -- -- -- -- 100
2020-03-19 19:00:00 6.4 6 Nordeste 34 Norte -- -- -- 100
2020-03-19 18:00:00 6.8 8 Este 28 Este -- -- -- 100
2020-03-19 17:00:00 7.1 6 Norte 23 Norte -- -- -- 100
2020-03-19 16:00:00 6.9 8 Este 32 Este -- -- -- 99
2020-03-19 15:00:00 7.3 10 Este -- -- -- -- -- 97
2020-03-19 14:00:00 7.9 15 Este 44 Este -- -- -- 96
2020-03-19 13:00:00 6.9 12 Nordeste 37 Este -- -- -- 99
2020-03-19 12:00:00 6.4 8 Nordeste 42 Este -- -- -- 100
2020-03-19 11:00:00 7 9 Nordeste -- -- -- -- -- 100
2020-03-19 10:00:00 -- -- -- -- -- -- -- -- --
2020-03-19 09:00:00 -- -- -- -- -- -- -- -- --
2020-03-19 08:00:00 6.3 8 Norte -- -- -- -- -- 100
2020-03-19 07:00:00 -- -- -- -- -- -- -- -- --
2020-03-19 06:00:00 5.7 5 Sudoeste -- -- -- -- -- 100
2020-03-19 05:00:00 5.5 4 Sur -- -- -- -- -- 100
2020-03-19 04:00:00 4.8 9 Oeste 33 Noroeste -- -- -- 100
2020-03-19 03:00:00 4.8 8 Sudoeste -- -- -- -- -- 100
2020-03-19 02:00:00 5.9 8 Sur -- -- -- -- -- 100
2020-03-19 01:00:00 5.7 10 Oeste -- -- -- -- -- 100
2020-03-19 00:00:00 5.1 7 Sudoeste 31 Noroeste -- -- -- 100
2020-03-18 23:00:00 4.6 8 Este 42 Oeste -- -- -- 100
2020-03-18 22:00:00 3.7 8 Sudoeste 45 Sudoeste -- -- -- 100
2020-03-18 21:00:00 4.5 12 Oeste -- -- -- -- -- 100
2020-03-18 20:00:00 -- -- -- -- -- -- -- -- --
2020-03-18 19:00:00 5.3 9 Oeste 28 Sudoeste -- -- -- 100
2020-03-18 18:00:00 5.3 6 Nordeste 29 Oeste -- -- -- 97
2020-03-18 17:00:00 5.5 7 Oeste 38 Sur -- -- -- 99
2020-03-18 16:00:00 7.3 8 Oeste 25 Norte -- -- -- 98
2020-03-18 15:00:00 6.4 6 Nordeste 24 Oeste -- -- -- 98
2020-03-18 14:00:00 5.5 5 Sudeste 26 Nordeste -- -- -- 100
2020-03-18 13:00:00 5.5 6 Este 29 Nordeste -- -- -- 100
2020-03-18 12:00:00 5.3 5 Nordeste 32 Norte -- -- -- 100
2020-03-18 11:00:00 4.7 10 Este -- -- -- -- -- 100
2020-03-18 10:00:00 4.2 5 Norte 34 Nordeste -- -- -- 100
2020-03-18 09:00:00 3.8 4 Nordeste -- -- -- -- -- 100
2020-03-18 08:00:00 3.8 9 Nordeste -- -- -- -- -- 100
2020-03-18 07:00:00 -- -- -- -- -- -- -- -- --
2020-03-18 06:00:00 -- -- -- -- -- -- -- -- --
2020-03-18 05:00:00 -- -- -- -- -- -- -- -- --
2020-03-18 04:00:00 4.1 12 Nordeste -- -- -- -- -- 100
2020-03-18 03:00:00 3.6 10 Nordeste 30 Este -- -- -- 100
2020-03-18 02:00:00 -- -- -- -- -- -- -- -- --
2020-03-18 01:00:00 4.5 9 Nordeste -- -- -- -- -- 100
2020-03-18 00:00:00 -- -- -- -- -- -- -- -- --
2020-03-17 23:00:00 -- -- -- -- -- -- -- -- --
2020-03-17 22:00:00 4.3 20 Este -- -- -- -- -- 100
2020-03-17 21:00:00 4.5 29 Este -- -- -- -- -- 100
2020-03-17 20:00:00 3.9 22 Este -- -- -- -- -- 100
2020-03-17 19:00:00 3.7 14 Este -- -- -- -- -- 100
2020-03-17 18:00:00 4.2 13 Nordeste 41 Nordeste -- -- -- 100
2020-03-17 17:00:00 5.1 12 Nordeste 39 Nordeste -- -- -- 100
2020-03-17 16:00:00 -- -- -- -- -- -- -- -- --
2020-03-17 15:00:00 5.2 8 Nordeste -- -- -- -- -- 100
2020-03-17 14:00:00 5.7 13 Nordeste -- -- -- -- -- 100
2020-03-17 13:00:00 5 17 Este -- -- -- -- -- 100
2020-03-17 12:00:00 5.3 16 Este -- -- -- -- -- 100
2020-03-17 11:00:00 -- -- -- -- -- -- -- -- --
2020-03-17 10:00:00 -- -- -- -- -- -- -- -- --
2020-03-17 09:00:00 -- -- -- -- -- -- -- -- --
2020-03-17 08:00:00 -- -- -- -- -- -- -- -- --
2020-03-17 07:00:00 -- -- -- -- -- -- -- -- --
2020-03-17 06:00:00 -- -- -- -- -- -- -- -- --
2020-03-17 05:00:00 -- -- -- -- -- -- -- -- --
2020-03-17 04:00:00 -- -- -- -- -- -- -- -- --
2020-03-17 03:00:00 -- -- -- -- -- -- -- -- --
2020-03-17 02:00:00 -- -- -- -- -- -- -- -- --
2020-03-17 01:00:00 -- -- -- -- -- -- -- -- --
2020-03-17 00:00:00 -- -- -- -- -- -- -- -- --
2020-03-16 23:00:00 -- -- -- -- -- -- -- -- --
2020-03-16 22:00:00 -- -- -- -- -- -- -- -- --
2020-03-16 21:00:00 -- -- -- -- -- -- -- -- --
2020-03-16 20:00:00 -- -- -- -- -- -- -- -- --
2020-03-16 19:00:00 -- -- -- -- -- -- -- -- --
2020-03-16 18:00:00 -- -- -- -- -- -- -- -- --
2020-03-16 17:00:00 6.2 23 Nordeste 57 Nordeste -- -- -- 100
2020-03-16 16:00:00 6.3 14 Nordeste 54 Nordeste -- -- -- 100
2020-03-16 15:00:00 6.5 16 Nordeste 52 Norte -- -- -- 100
2020-03-16 14:00:00 6.1 13 Nordeste 63 Este -- -- -- 100
2020-03-16 13:00:00 5.9 19 Nordeste 61 Nordeste -- -- -- 100
2020-03-16 12:00:00 5.1 18 Este -- -- -- -- -- 100
2020-03-16 11:00:00 4.8 24 Nordeste -- -- -- -- -- 100
2020-03-16 10:00:00 5.4 27 Nordeste -- -- -- -- -- 100
2020-03-16 09:00:00 -- -- -- -- -- -- -- -- --
2020-03-16 08:00:00 -- -- -- -- -- -- -- -- --
2020-03-16 07:00:00 -- -- -- -- -- -- -- -- --
2020-03-16 06:00:00 -- -- -- -- -- -- -- -- --
2020-03-16 05:00:00 5.3 21 Nordeste -- -- -- -- -- 100
2020-03-16 04:00:00 5.6 16 Nordeste -- -- -- -- -- 100
2020-03-16 03:00:00 -- -- -- -- -- -- -- -- --
2020-03-16 02:00:00 5.5 14 Nordeste -- -- -- -- -- 100
2020-03-16 01:00:00 5.4 27 Este -- -- -- -- -- 100
2020-03-16 00:00:00 -- -- -- -- -- -- -- -- --
2020-03-15 23:00:00 5.4 22 Nordeste -- -- -- -- -- 100
2020-03-15 22:00:00 4.9 14 Este -- -- -- -- -- 100
2020-03-15 21:00:00 4.9 24 Este -- -- -- -- -- 100
2020-03-15 20:00:00 5.4 25 Este -- -- -- -- -- 99
2020-03-15 19:00:00 -- -- -- -- -- -- -- -- --
2020-03-15 18:00:00 5.5 12 Nordeste -- -- -- -- -- 99
2020-03-15 17:00:00 -- -- -- -- -- -- -- -- --
2020-03-15 16:00:00 6.6 9 Este 29 Sudeste -- -- -- 98
2020-03-15 15:00:00 6.4 8 Este 30 Este -- -- -- 98
2020-03-15 14:00:00 5.6 8 Nordeste 28 Este -- -- -- 99
2020-03-15 13:00:00 5.7 7 Este 26 Norte -- -- -- 99
2020-03-15 12:00:00 5.6 8 Este -- -- -- -- -- 99
2020-03-15 11:00:00 5.1 6 Este 20 Este -- -- -- 99
2020-03-15 10:00:00 5 5 Nordeste -- -- -- -- -- 99
2020-03-15 09:00:00 -- -- -- -- -- -- -- -- --
2020-03-15 08:00:00 4.5 9 Nordeste -- -- -- -- -- 99
2020-03-15 07:00:00 5.1 14 Este -- -- -- -- -- 99
2020-03-15 06:00:00 4.8 6 Nordeste 33 Este -- -- -- 99
2020-03-15 05:00:00 4.9 6 Nordeste -- -- -- -- -- 98
2020-03-15 04:00:00 4.6 7 Nordeste 32 Este -- -- -- 98
2020-03-15 03:00:00 4.9 6 Nordeste 28 Nordeste -- -- -- 98
2020-03-15 02:00:00 4.7 5 Nordeste 34 Nordeste -- -- -- 97
2020-03-15 01:00:00 4.7 7 Nordeste 29 Noroeste -- -- -- 96
2020-03-15 00:00:00 4.9 9 Norte 29 Noroeste -- -- -- 90
2020-03-14 23:00:00 5.5 12 Noroeste 27 Noroeste -- -- -- 83
2020-03-14 22:00:00 6.6 12 Noroeste 27 Norte -- -- -- 71
2020-03-14 21:00:00 6.2 10 Noroeste 24 Norte -- -- -- 78
2020-03-14 20:00:00 5.4 0 Calma 8 Este -- -- -- 86
2020-03-14 19:00:00 7 0 Calma 8 Sudoeste -- -- -- 90
2020-03-14 18:00:00 10.5 2 Nordeste 12 Sudoeste -- -- -- 78
2020-03-14 17:00:00 10.5 3 Este 16 Noroeste -- -- -- 82
2020-03-14 16:00:00 11.1 5 Este 23 Sudoeste -- -- -- 81
2020-03-14 15:00:00 10.6 3 Este 11 Este -- -- -- 91
2020-03-14 14:00:00 11.9 4 Este 15 Este -- -- -- 82
2020-03-14 13:00:00 8.8 4 Nordeste 17 Este -- -- -- 92
2020-03-14 12:00:00 10.3 6 Este 15 Este -- -- -- 85
2020-03-14 11:00:00 10.4 4 Este 12 Nordeste -- -- -- 76
2020-03-14 10:00:00 10.4 3 Nordeste 9 Este -- -- -- 74
2020-03-14 09:00:00 7 2 Nordeste 6 Nordeste -- -- -- 87
2020-03-14 08:00:00 8.5 0 Calma 5 Oeste -- -- -- 67
2020-03-14 07:00:00 6.7 2 Noroeste 8 Sudoeste -- -- -- 30
2020-03-14 06:00:00 6.7 0 Calma 11 Sur -- -- -- 76
2020-03-14 05:00:00 11.1 2 Sudeste 16 Sudoeste -- -- -- 21
2020-03-14 04:00:00 11.2 3 Sudoeste 10 Sudoeste -- -- -- 19
2020-03-14 03:00:00 10.2 0 Calma 5 Norte -- -- -- 20
2020-03-14 02:00:00 7.8 0 Calma 5 Nordeste -- -- -- 66
2020-03-14 01:00:00 8.2 0 Calma 5 Nordeste -- -- -- 51
2020-03-14 00:00:00 10.5 0 Calma 4 Norte -- -- -- 26
2020-03-13 23:00:00 11.3 2 Oeste 3 Oeste -- -- -- 33
2020-03-13 22:00:00 12.1 0 Calma 6 Nordeste -- -- -- 26
2020-03-13 21:00:00 12.1 0 Calma 2 Norte -- -- -- 33
2020-03-13 20:00:00 12.3 0 Calma 3 Nordeste -- -- -- 23
2020-03-13 19:00:00 13.8 0 Calma 2 Norte -- -- -- 21
2020-03-13 18:00:00 15.4 0 Calma 10 Sudoeste -- -- -- 27
2020-03-13 17:00:00 15.5 5 Sudoeste 15 Sudoeste -- -- -- 42
2020-03-13 16:00:00 16.2 4 Este 10 Este -- -- -- 30
2020-03-13 15:00:00 15.2 4 Nordeste 18 Este -- -- -- 39
2020-03-13 14:00:00 16.3 5 Nordeste 19 Nordeste -- -- -- 27
2020-03-13 13:00:00 15.3 3 Este 20 Este -- -- -- 25
2020-03-13 12:00:00 15.8 5 Este 21 Nordeste -- -- -- 26
2020-03-13 11:00:00 15.4 4 Nordeste 19 Este -- -- -- 22
2020-03-13 10:00:00 15.3 3 Nordeste 12 Nordeste -- -- -- 20
2020-03-13 09:00:00 14.4 2 Nordeste 10 Nordeste -- -- -- 24
2020-03-13 08:00:00 13.5 10 Nordeste 14 Nordeste -- -- -- 23
2020-03-13 07:00:00 12.6 6 Nordeste 11 Nordeste -- -- -- 25
2020-03-13 06:00:00 12.7 4 Nordeste 15 Norte -- -- -- 24
2020-03-13 05:00:00 12.4 4 Nordeste 14 Nordeste -- -- -- 24
2020-03-13 04:00:00 13.2 7 Nordeste 14 Nordeste -- -- -- 24
2020-03-13 03:00:00 13.1 6 Nordeste 10 Norte -- -- -- 25
2020-03-13 02:00:00 13.3 5 Nordeste 8 Nordeste -- -- -- 26
2020-03-13 01:00:00 13.6 5 Nordeste 8 Norte -- -- -- 23
2020-03-13 00:00:00 13.3 4 Norte 7 Norte -- -- -- 26
2020-03-12 23:00:00 13.5 5 Norte 8 Norte -- -- -- 30
2020-03-12 22:00:00 13.2 0 Calma 6 Norte -- -- -- 32
2020-03-12 21:00:00 13.9 4 Norte 8 Nordeste -- -- -- 27
2020-03-12 20:00:00 14.3 3 Norte 5 Norte -- -- -- 28
2020-03-12 19:00:00 15.5 2 Nordeste 15 Este -- -- -- 50
2020-03-12 18:00:00 16.2 11 Este 19 Este -- -- -- 37
2020-03-12 17:00:00 17.8 11 Este 21 Este -- -- -- 35
2020-03-12 16:00:00 19.9 6 Este 13 Este -- -- -- 40
2020-03-12 15:00:00 20 4 Nordeste 15 Este -- -- -- 34
2020-03-12 14:00:00 21.1 5 Este 21 Este -- -- -- 23
2020-03-12 13:00:00 21 6 Este 24 Este -- -- -- 18
2020-03-12 12:00:00 18.3 5 Nordeste 28 Norte -- -- -- 23
2020-03-12 11:00:00 17.7 8 Nordeste 24 Norte -- -- -- 20
2020-03-12 10:00:00 16.9 5 Nordeste 19 Nordeste -- -- -- 19
2020-03-12 09:00:00 15.3 3 Nordeste 25 Norte -- -- -- 17
2020-03-12 08:00:00 14.3 13 Nordeste 24 Nordeste -- -- -- 16
2020-03-12 07:00:00 13.8 14 Nordeste 23 Nordeste -- -- -- 13
2020-03-12 06:00:00 13.5 15 Nordeste 25 Nordeste -- -- -- 14
2020-03-12 05:00:00 13.3 13 Nordeste 19 Nordeste -- -- -- 14
2020-03-12 04:00:00 14.1 11 Nordeste 15 Nordeste -- -- -- 16
2020-03-12 03:00:00 14.3 6 Nordeste 11 Norte -- -- -- 16
2020-03-12 02:00:00 13.8 6 Norte 10 Norte -- -- -- 16
2020-03-12 01:00:00 15.3 3 Sudeste 15 Este -- -- -- 15
2020-03-12 00:00:00 14.7 4 Este 8 Este -- -- -- 15
2020-03-11 23:00:00 14.5 3 Sudeste 15 Este -- -- -- 16
2020-03-11 22:00:00 15.1 3 Nordeste 14 Este -- -- -- 16
2020-03-11 21:00:00 13.9 3 Norte 5 Nordeste -- -- -- 20
2020-03-11 20:00:00 14 2 Norte 4 Norte -- -- -- 29
2020-03-11 19:00:00 15.4 0 Calma 9 Nordeste -- -- -- 29
2020-03-11 18:00:00 16.4 5 Norte 17 Este -- -- -- 24
2020-03-11 17:00:00 18.1 5 Este 22 Este -- -- -- 31
2020-03-11 16:00:00 20.2 7 Sudeste 21 Este -- -- -- 13
2020-03-11 15:00:00 19.2 6 Sur 19 Sur -- -- -- 13
2020-03-11 14:00:00 20.7 5 Sur 23 Este -- -- -- 13
2020-03-11 13:00:00 19.9 10 Este 23 Este -- -- -- 13
2020-03-11 12:00:00 19.9 5 Este 19 Este -- -- -- 10
2020-03-11 11:00:00 19 6 Este 22 Nordeste -- -- -- 16
2020-03-11 10:00:00 15.3 3 Nordeste 14 Nordeste -- -- -- 21
2020-03-11 09:00:00 14.8 3 Nordeste 15 Sur -- -- -- 18
2020-03-11 08:00:00 15.4 4 Sudoeste 17 Norte -- -- -- 12
2020-03-11 07:00:00 13.6 0 Calma 10 Sudoeste -- -- -- 15
2020-03-11 06:00:00 14.6 8 Oeste 12 Oeste -- -- -- 13
2020-03-11 05:00:00 14 4 Oeste 9 Oeste -- -- -- 12
2020-03-11 04:00:00 14.6 4 Oeste 12 Oeste -- -- -- 12
2020-03-11 03:00:00 14.6 4 Este 12 Este -- -- -- 13
2020-03-11 02:00:00 14.5 4 Norte 15 Este -- -- -- 14
2020-03-11 01:00:00 14.8 3 Sudeste 9 Sudeste -- -- -- 12
2020-03-11 00:00:00 14.7 5 Nordeste 14 Norte -- -- -- 7
2020-03-10 23:00:00 14.7 8 Norte 13 Norte -- -- -- 5
2020-03-10 22:00:00 14.9 11 Norte 15 Nordeste -- -- -- 5
2020-03-10 21:00:00 14.1 9 Nordeste 19 Nordeste -- -- -- 19
2020-03-10 20:00:00 13 5 Nordeste 12 Norte -- -- -- 50
2020-03-10 19:00:00 14.6 2 Oeste 15 Sudoeste -- -- -- 31
2020-03-10 18:00:00 17.1 6 Sudoeste 15 Sudoeste -- -- -- 30
2020-03-10 17:00:00 18.5 4 Este 10 Este -- -- -- 48
2020-03-10 16:00:00 20.1 5 Este 13 Este -- -- -- 46
2020-03-10 15:00:00 20.2 5 Este 12 Este -- -- -- 43
2020-03-10 14:00:00 20.3 4 Este 15 Este -- -- -- 36
2020-03-10 13:00:00 20.5 6 Este 17 Este -- -- -- 36
2020-03-10 12:00:00 18.2 6 Nordeste 21 Este -- -- -- 21
2020-03-10 11:00:00 18.3 5 Nordeste 28 Norte -- -- -- 14
2020-03-10 10:00:00 17 4 Nordeste 18 Nordeste -- -- -- 19
2020-03-10 09:00:00 15.3 3 Nordeste 28 Nordeste -- -- -- 20
2020-03-10 08:00:00 13.9 16 Nordeste 27 Norte -- -- -- 16
2020-03-10 07:00:00 12.8 18 Nordeste 28 Nordeste -- -- -- 14
2020-03-10 06:00:00 12.8 21 Nordeste 34 Nordeste -- -- -- 15
2020-03-10 05:00:00 12.3 22 Nordeste 34 Nordeste -- -- -- 16
2020-03-10 04:00:00 12 23 Nordeste 32 Nordeste -- -- -- 20
2020-03-10 03:00:00 11.8 21 Nordeste 33 Nordeste -- -- -- 23
2020-03-10 02:00:00 11.9 25 Nordeste 35 Nordeste -- -- -- 23
2020-03-10 01:00:00 11.5 27 Nordeste 39 Nordeste -- -- -- 26
2020-03-10 00:00:00 11.5 26 Nordeste 39 Nordeste -- -- -- 32
2020-03-09 23:00:00 11.6 23 Nordeste 37 Nordeste -- -- -- 36
2020-03-09 22:00:00 11.9 18 Nordeste 40 Nordeste -- -- -- 34
2020-03-09 21:00:00 11.7 9 Nordeste 31 Nordeste -- -- -- 37
2020-03-09 20:00:00 11.6 10 Nordeste 27 Nordeste -- -- -- 37
2020-03-09 19:00:00 11.9 3 Nordeste 22 Nordeste -- -- -- 42
2020-03-09 18:00:00 13.9 7 Nordeste 32 Nordeste -- -- -- 32
2020-03-09 17:00:00 14.9 8 Nordeste 41 Nordeste -- -- -- 30
2020-03-09 16:00:00 15.6 11 Nordeste 49 Nordeste -- -- -- 25
2020-03-09 15:00:00 15.9 10 Nordeste 37 Nordeste -- -- -- 24
2020-03-09 14:00:00 16.1 9 Nordeste 34 Nordeste -- -- -- 25
2020-03-09 13:00:00 15.8 10 Nordeste 42 Nordeste -- -- -- 27
2020-03-09 12:00:00 16.2 7 Nordeste 36 Nordeste -- -- -- 27
2020-03-09 11:00:00 14.4 8 Nordeste 42 Nordeste -- -- -- 30
2020-03-09 10:00:00 13.9 18 Nordeste 46 Nordeste -- -- -- 30
2020-03-09 09:00:00 12.8 5 Nordeste 34 Nordeste -- -- -- 31
2020-03-09 08:00:00 11.4 4 Nordeste 24 Norte -- -- -- 34
2020-03-09 07:00:00 10.9 5 Nordeste 22 Nordeste -- -- -- 33
2020-03-09 06:00:00 11.4 6 Nordeste 41 Nordeste -- -- -- 32
2020-03-09 05:00:00 10.6 21 Nordeste 42 Nordeste -- -- -- 32
2020-03-09 04:00:00 11.1 25 Nordeste 59 Nordeste -- -- -- 31
2020-03-09 03:00:00 10.9 27 Nordeste 45 Nordeste -- -- -- 32
2020-03-09 02:00:00 11.4 26 Nordeste 41 Nordeste -- -- -- 31
2020-03-09 01:00:00 12.1 8 Nordeste 32 Nordeste -- -- -- 29
2020-03-09 00:00:00 13 13 Nordeste 34 Nordeste -- -- -- 26
2020-03-08 23:00:00 13.7 10 Nordeste 34 Nordeste -- -- -- 24
2020-03-08 22:00:00 14 12 Nordeste 36 Nordeste -- -- -- 22
2020-03-08 21:00:00 14.3 13 Nordeste 43 Nordeste -- -- -- 20
2020-03-08 20:00:00 14.4 15 Nordeste 40 Norte -- -- -- 19
2020-03-08 19:00:00 14.5 17 Nordeste 41 Nordeste -- -- -- 18
2020-03-08 18:00:00 15.5 10 Nordeste 31 Nordeste -- -- -- 17
2020-03-08 17:00:00 16.5 5 Nordeste 27 Nordeste -- -- -- 26
2020-03-08 16:00:00 17.1 7 Nordeste 30 Nordeste -- -- -- 23
2020-03-08 15:00:00 17.1 8 Nordeste 34 Norte -- -- -- 25
2020-03-08 14:00:00 16.8 13 Nordeste 36 Nordeste -- -- -- 24
2020-03-08 13:00:00 16.4 16 Nordeste 38 Nordeste -- -- -- 21
2020-03-08 12:00:00 15.1 12 Nordeste 49 Norte -- -- -- 32
2020-03-08 11:00:00 15.4 11 Nordeste 46 Nordeste -- -- -- 27
2020-03-08 10:00:00 15.3 11 Nordeste 44 Nordeste -- -- -- 24
2020-03-08 09:00:00 14.3 17 Nordeste 42 Nordeste -- -- -- 23
2020-03-08 08:00:00 13.5 18 Nordeste 42 Nordeste -- -- -- 25
2020-03-08 07:00:00 13.5 16 Nordeste 44 Nordeste -- -- -- 23
2020-03-08 06:00:00 13.7 18 Nordeste 39 Nordeste -- -- -- 22
2020-03-08 05:00:00 13.6 19 Nordeste 42 Nordeste -- -- -- 23
2020-03-08 04:00:00 13.1 26 Nordeste 37 Nordeste -- -- -- 27
2020-03-08 03:00:00 13.5 22 Nordeste 31 Nordeste -- -- -- 26
2020-03-08 02:00:00 14.5 19 Nordeste 27 Nordeste -- -- -- 21
2020-03-08 01:00:00 14.7 15 Nordeste 24 Nordeste -- -- -- 20
2020-03-08 00:00:00 14.2 15 Nordeste 23 Nordeste -- -- -- 25
2020-03-07 23:00:00 14.4 13 Nordeste 26 Nordeste -- -- -- 24
2020-03-07 22:00:00 14.5 12 Nordeste 19 Nordeste -- -- -- 23
2020-03-07 21:00:00 14.3 9 Nordeste 15 Nordeste -- -- -- 24
2020-03-07 20:00:00 14.6 6 Nordeste 14 Norte -- -- -- 22
2020-03-07 19:00:00 14.9 4 Nordeste 14 Nordeste -- -- -- 27
2020-03-07 18:00:00 16.5 2 Nordeste 24 Este -- -- -- 25
2020-03-07 17:00:00 17 6 Nordeste 21 Nordeste -- -- -- 30
2020-03-07 16:00:00 16.2 5 Nordeste 23 Nordeste -- -- -- 37
2020-03-07 15:00:00 14.9 6 Nordeste 26 Norte -- -- -- 53
2020-03-07 14:00:00 14.6 6 Nordeste 28 Nordeste -- -- -- 52
2020-03-07 13:00:00 12.7 4 Nordeste 19 Norte -- -- -- 65
2020-03-07 12:00:00 13.3 6 Nordeste 37 Nordeste -- -- -- 47
2020-03-07 11:00:00 13.2 10 Nordeste 44 Norte -- -- -- 23
2020-03-07 10:00:00 12 8 Nordeste 46 Nordeste -- -- -- 28
2020-03-07 09:00:00 10.5 12 Nordeste 43 Nordeste -- -- -- 30
2020-03-07 08:00:00 8.3 9 Nordeste 42 Nordeste -- -- -- 37
2020-03-07 07:00:00 10.4 24 Nordeste 35 Nordeste -- -- -- 14
2020-03-07 06:00:00 9.2 4 Nordeste 48 Nordeste -- -- -- 26
2020-03-07 05:00:00 7 9 Nordeste 36 Nordeste -- -- -- 51
2020-03-07 04:00:00 3.8 12 Nordeste 37 Nordeste -- -- -- 96
2020-03-07 03:00:00 4.2 8 Nordeste 45 Nordeste -- -- -- 91
2020-03-07 02:00:00 9.2 32 Nordeste 46 Nordeste -- -- -- 24
2020-03-07 01:00:00 8.5 20 Nordeste 56 Nordeste -- -- -- 25
2020-03-07 00:00:00 8.9 37 Nordeste 61 Nordeste -- -- -- 23
2020-03-06 23:00:00 9.2 39 Nordeste -- -- -- -- -- 18
2020-03-06 22:00:00 4.6 9 Este -- -- -- -- -- 99
2020-03-06 21:00:00 4.4 21 Nordeste 50 Nordeste -- -- -- 98
2020-03-06 20:00:00 4.4 8 Nordeste 44 Nordeste -- -- -- 94
2020-03-06 19:00:00 6 13 Nordeste 42 Nordeste -- -- -- 69
2020-03-06 18:00:00 5.1 5 Nordeste 42 Este -- -- -- 99
2020-03-06 17:00:00 6.1 12 Nordeste 50 Nordeste -- -- -- 99
2020-03-06 16:00:00 6 8 Nordeste 49 Nordeste -- -- -- 99
2020-03-06 15:00:00 5.8 15 Este -- -- -- -- -- 99
2020-03-06 14:00:00 6.2 8 Este 40 Este -- -- -- 99
2020-03-06 13:00:00 6.1 7 Este -- -- -- -- -- 99
2020-03-06 12:00:00 5.6 16 Nordeste -- -- -- -- -- 99
2020-03-06 11:00:00 -- -- -- -- -- -- -- -- --
2020-03-06 10:00:00 -- -- -- -- -- -- -- -- --
2020-03-06 09:00:00 -- -- -- -- -- -- -- -- --
2020-03-06 08:00:00 -- -- -- -- -- -- -- -- --
2020-03-06 07:00:00 -- -- -- -- -- -- -- -- --
2020-03-06 06:00:00 -- -- -- -- -- -- -- -- --
2020-03-06 05:00:00 -- -- -- -- -- -- -- -- --
2020-03-06 04:00:00 -- -- -- -- -- -- -- -- --
2020-03-06 03:00:00 -- -- -- -- -- -- -- -- --
2020-03-06 02:00:00 -- -- -- -- -- -- -- -- --
2020-03-06 01:00:00 6.9 10 Nordeste -- -- -- -- -- 98
2020-03-06 00:00:00 7.3 8 Nordeste 42 Norte -- -- -- 97
2020-03-05 23:00:00 6.9 22 Nordeste 41 Nordeste -- -- -- 96
2020-03-05 22:00:00 7.7 14 Nordeste 40 Nordeste -- -- -- 71
2020-03-05 21:00:00 12.5 9 Nordeste 38 Nordeste -- -- -- 36
2020-03-05 20:00:00 12.3 11 Nordeste 36 Nordeste -- -- -- 36
2020-03-05 19:00:00 12.7 8 Nordeste 31 Nordeste -- -- -- 34
2020-03-05 18:00:00 14 10 Nordeste 32 Nordeste -- -- -- 32
2020-03-05 17:00:00 15.2 8 Nordeste 24 Nordeste -- -- -- 34
2020-03-05 16:00:00 15.3 4 Nordeste 12 Nordeste -- -- -- 36
2020-03-05 15:00:00 15.5 3 Nordeste 17 Este -- -- -- 45
2020-03-05 14:00:00 16.7 6 Nordeste 28 Este -- -- -- 54
2020-03-05 13:00:00 17.6 10 Este 25 Nordeste -- -- -- 45
2020-03-05 12:00:00 16.3 4 Nordeste 24 Este -- -- -- 50
2020-03-05 11:00:00 15.8 7 Este 24 Este -- -- -- 47
2020-03-05 10:00:00 15.1 3 Nordeste 16 Norte -- -- -- 45
2020-03-05 09:00:00 14.5 2 Nordeste 19 Nordeste -- -- -- 34
2020-03-05 08:00:00 13.7 8 Nordeste 18 Norte -- -- -- 28
2020-03-05 07:00:00 13.8 11 Nordeste 19 Norte -- -- -- 32
2020-03-05 06:00:00 14.1 4 Nordeste 15 Nordeste -- -- -- 29
2020-03-05 05:00:00 15.1 8 Nordeste 16 Norte -- -- -- 27
2020-03-05 04:00:00 15.4 3 Oeste 10 Noroeste -- -- -- 18
2020-03-05 03:00:00 18.1 6 Norte 12 Nordeste -- -- -- 14
2020-03-05 02:00:00 17.6 3 Nordeste 14 Norte -- -- -- 15
2020-03-05 01:00:00 16.1 4 Nordeste 18 Nordeste -- -- -- 23
2020-03-05 00:00:00 17.8 5 Nordeste 13 Nordeste -- -- -- 17
2020-03-04 23:00:00 16.5 7 Nordeste 14 Nordeste -- -- -- 23
2020-03-04 22:00:00 18.1 9 Norte 13 Norte -- -- -- 18
2020-03-04 21:00:00 17.7 3 Norte 7 Nordeste -- -- -- 20
2020-03-04 20:00:00 17.6 3 Oeste 10 Sudoeste -- -- -- 27
2020-03-04 19:00:00 19.7 5 Sudoeste 13 Sudoeste -- -- -- 32
2020-03-04 18:00:00 21 7 Sudoeste 21 Sudoeste -- -- -- 28
2020-03-04 17:00:00 22.2 6 Sudoeste 21 Sudoeste -- -- -- 30
2020-03-04 16:00:00 22.3 8 Sudoeste 19 Sudoeste -- -- -- 33
2020-03-04 15:00:00 22.1 4 Este 13 Nordeste -- -- -- 30
2020-03-04 14:00:00 19.1 4 Nordeste 15 Este -- -- -- 33
2020-03-04 13:00:00 19.3 6 Este 18 Nordeste -- -- -- 28
2020-03-04 12:00:00 18.5 4 Nordeste 15 Este -- -- -- 26
2020-03-04 11:00:00 18.4 3 Nordeste 14 Nordeste -- -- -- 26
2020-03-04 10:00:00 18.7 3 Nordeste 9 Nordeste -- -- -- 27
2020-03-04 09:00:00 18 2 Nordeste 15 Nordeste -- -- -- 21
2020-03-04 08:00:00 17.4 6 Nordeste 18 Nordeste -- -- -- 25
2020-03-04 07:00:00 16.9 13 Nordeste 26 Nordeste -- -- -- 25
2020-03-04 06:00:00 16.9 13 Nordeste 24 Norte -- -- -- 26
2020-03-04 05:00:00 16.8 12 Nordeste 27 Nordeste -- -- -- 27
2020-03-04 04:00:00 16.8 13 Nordeste 32 Nordeste -- -- -- 27
2020-03-04 03:00:00 16.8 14 Nordeste 27 Nordeste -- -- -- 26
2020-03-04 02:00:00 16.6 18 Nordeste 29 Nordeste -- -- -- 27
2020-03-04 01:00:00 16.9 18 Nordeste 29 Nordeste -- -- -- 27
2020-03-04 00:00:00 16.8 15 Nordeste 30 Nordeste -- -- -- 29